Time;durP1;ratioP1;P1;durP2;ratioP2;P2;SDS_P1;SDS_P2;PMS_P1;PMS_P2;Temp;Humidity;BMP_temperature;BMP_pressure;BME280_temperature;BME280_humidity;BME280_pressure;Samples;Min_cycle;Max_cycle;Signal;HPM_P1;HPM_P2
2023/09/11 00:02:14;;;;;;;12.27;11.07;;;;;;;21.98;68.93;96708.50;6290390;22;20026;-78
2023/09/11 00:04:42;;;;;;;13.35;9.95;;;;;;;21.97;69.13;96703.44;6277593;22;20464;-78
2023/09/11 00:07:09;;;;;;;11.60;10.40;;;;;;;21.98;69.05;96702.38;6277766;22;20461;-78
2023/09/11 00:09:38;;;;;;;10.90;9.85;;;;;;;21.96;68.79;96701.84;6278345;22;20073;-78
2023/09/11 00:12:07;;;;;;;10.75;9.65;;;;;;;21.95;68.46;96695.72;6278833;22;20020;-78
2023/09/11 00:14:34;;;;;;;9.77;8.82;;;;;;;21.93;68.54;96695.19;6277953;22;20023;-79
2023/09/11 00:17:02;;;;;;;9.65;8.65;;;;;;;21.92;69.01;96687.44;6278246;22;20027;-78
2023/09/11 00:19:30;;;;;;;11.68;8.90;;;;;;;21.92;68.45;96687.44;6278319;22;20469;-78
2023/09/11 00:21:57;;;;;;;11.05;9.68;;;;;;;21.94;68.47;96688.00;6278626;22;20066;-78
2023/09/11 00:24:25;;;;;;;10.90;9.68;;;;;;;21.91;68.73;96680.53;6278634;22;20016;-78
2023/09/11 00:26:55;;;;;;;11.73;9.30;;;;;;;21.90;68.64;96682.38;6278008;22;20020;-78
2023/09/11 00:29:22;;;;;;;10.18;9.23;;;;;;;21.89;68.55;96683.44;6278199;22;20035;-78
2023/09/11 00:31:51;;;;;;;10.15;9.10;;;;;;;21.88;68.37;96678.38;6278089;22;20028;-78
2023/09/11 00:34:19;;;;;;;10.27;8.68;;;;;;;21.88;68.22;96675.72;6277773;22;20020;-78
2023/09/11 00:36:46;;;;;;;10.00;9.00;;;;;;;21.87;68.08;96676.78;6279010;22;20094;-78
2023/09/11 00:39:14;;;;;;;8.95;8.15;;;;;;;21.89;68.38;96670.19;6278543;22;20023;-78
2023/09/11 00:41:42;;;;;;;9.57;8.57;;;;;;;21.92;68.36;96666.22;6278379;22;20104;-78
2023/09/11 00:44:12;;;;;;;11.95;9.98;;;;;;;21.90;67.84;96666.44;6278994;22;20024;-78
2023/09/11 00:46:40;;;;;;;15.85;9.52;;;;;;;21.88;68.18;96660.59;6280142;22;20070;-78
2023/09/11 00:49:09;;;;;;;13.60;9.45;;;;;;;21.87;67.94;96660.88;6280664;22;20023;-78
2023/09/11 00:51:38;;;;;;;12.85;9.25;;;;;;;21.85;67.83;96660.31;6281079;22;20079;-78
2023/09/11 00:54:06;;;;;;;10.43;9.43;;;;;;;21.81;67.71;96663.44;6289771;22;20023;-78
2023/09/11 00:56:34;;;;;;;11.75;9.52;;;;;;;21.83;67.67;96657.09;6295932;22;20058;-78
2023/09/11 00:59:04;;;;;;;8.90;7.90;;;;;;;21.87;68.19;96663.53;6284174;22;20465;-78
2023/09/11 01:01:33;;;;;;;9.80;8.80;;;;;;;21.91;67.58;96653.97;6279188;22;20019;-78
2023/09/11 01:04:01;;;;;;;9.60;8.55;;;;;;;21.95;67.68;96657.72;6282763;22;20019;-78
2023/09/11 01:06:29;;;;;;;11.07;9.07;;;;;;;21.97;67.39;96650.31;6280035;22;20023;-78
2023/09/11 01:08:57;;;;;;;10.93;9.05;;;;;;;21.97;67.15;96650.31;6280259;22;20027;-78
2023/09/11 01:11:24;;;;;;;9.20;8.15;;;;;;;22.00;67.00;96652.47;6279905;22;20058;-78
2023/09/11 01:13:52;;;;;;;10.65;9.65;;;;;;;22.02;67.18;96645.06;6280705;22;20024;-78
2023/09/11 01:16:27;;;;;;;9.70;8.80;;;;;;;22.03;67.21;96646.63;6280162;22;20047;-78
2023/09/11 01:19:02;;;;;;;11.05;9.15;;;;;;;21.99;67.15;96648.19;6280136;22;20094;-78
2023/09/11 01:21:53;;;;;;;9.48;8.57;;;;;;;21.94;67.28;96643.66;6280730;22;20034;-79
2023/09/11 01:24:50;;;;;;;9.55;8.65;;;;;;;21.89;67.24;96645.47;6279681;22;20360;-78
2023/09/11 01:27:58;;;;;;;13.75;9.60;;;;;;;21.85;67.52;96644.38;6280140;22;20352;-78
2023/09/11 01:30:29;;;;;;;12.00;9.40;;;;;;;21.81;67.42;96644.06;6242253;22;20408;-78
2023/09/11 01:32:57;;;;;;;10.45;9.30;;;;;;;21.81;67.48;96639.56;6279739;22;20091;-79
2023/09/11 01:35:25;;;;;;;13.43;9.35;;;;;;;21.78;67.87;96639.28;6279920;22;20020;-78
2023/09/11 01:37:55;;;;;;;9.38;8.38;;;;;;;21.79;67.86;96638.22;6279044;22;20477;-78
2023/09/11 01:40:25;;;;;;;10.75;9.10;;;;;;;21.80;68.03;96637.19;6279511;22;20444;-78
2023/09/11 01:42:56;;;;;;;10.60;9.32;;;;;;;21.82;67.98;96643.00;6279332;22;20022;-78
2023/09/11 01:45:25;;;;;;;10.02;9.02;;;;;;;21.83;67.81;96636.66;6279777;22;20019;-78
2023/09/11 01:47:54;;;;;;;8.95;8.13;;;;;;;21.86;68.03;96635.34;6280488;22;20024;-78
2023/09/11 01:50:24;;;;;;;10.80;9.70;;;;;;;21.88;67.23;96638.56;6279601;22;20028;-78
2023/09/11 01:52:52;;;;;;;10.88;9.88;;;;;;;21.86;67.49;96638.00;6279129;22;20097;-78
2023/09/11 01:55:21;;;;;;;10.00;8.95;;;;;;;21.85;67.38;96633.75;6290586;22;20024;-78
2023/09/11 01:57:49;;;;;;;10.75;9.65;;;;;;;21.83;67.46;96638.53;6278124;22;20469;-78
2023/09/11 02:00:16;;;;;;;9.90;8.45;;;;;;;21.81;67.73;96631.59;6278959;22;20099;-78
2023/09/11 02:02:44;;;;;;;11.25;9.13;;;;;;;21.81;67.43;96639.56;6279061;22;20384;-78
2023/09/11 02:05:13;;;;;;;10.40;9.18;;;;;;;21.79;67.60;96636.34;6279567;22;20032;-78
2023/09/11 02:07:41;;;;;;;10.50;9.50;;;;;;;21.79;67.41;96641.66;6278977;22;20047;-78
2023/09/11 02:10:09;;;;;;;9.63;8.70;;;;;;;21.80;67.81;96635.31;6278762;22;20019;-78
2023/09/11 02:12:37;;;;;;;11.57;8.95;;;;;;;21.83;67.47;96636.66;6278653;22;20085;-78
2023/09/11 02:15:05;;;;;;;10.57;9.40;;;;;;;21.82;67.79;96629.72;6279217;22;20415;-78
2023/09/11 02:17:33;;;;;;;10.90;9.40;;;;;;;21.84;67.89;96627.63;6278662;22;20062;-78
2023/09/11 02:20:03;;;;;;;9.68;8.77;;;;;;;21.83;67.59;96636.66;6293157;22;20024;-78
2023/09/11 02:22:32;;;;;;;9.07;8.15;;;;;;;21.84;67.54;96634.78;6295021;22;20464;-80
2023/09/11 02:25:01;;;;;;;10.30;9.30;;;;;;;21.84;67.75;96632.13;6270040;23;20027;-81
2023/09/11 02:27:29;;;;;;;9.95;9.05;;;;;;;21.85;67.68;96629.25;6269896;22;20047;-80
2023/09/11 02:29:57;;;;;;;10.10;9.10;;;;;;;21.88;67.76;96634.03;6270097;22;20079;-81
2023/09/11 02:32:27;;;;;;;10.55;9.55;;;;;;;21.91;67.47;96632.72;6269020;22;20024;-80
2023/09/11 02:34:55;;;;;;;10.55;9.52;;;;;;;21.91;67.62;96633.53;6268852;22;20000;-80
2023/09/11 02:37:24;;;;;;;10.48;9.25;;;;;;;21.94;67.49;96633.03;6268711;22;20042;-80
2023/09/11 02:39:53;;;;;;;11.38;9.70;;;;;;;21.93;67.49;96634.09;6269837;22;20076;-80
2023/09/11 02:42:21;;;;;;;11.25;9.52;;;;;;;21.88;67.56;96635.91;6269661;22;20194;-80
2023/09/11 02:44:50;;;;;;;12.00;9.13;;;;;;;21.87;67.78;96634.31;6269251;22;20024;-79
2023/09/11 02:47:18;;;;;;;10.57;9.57;;;;;;;21.85;67.84;96634.56;6269452;22;20024;-80
2023/09/11 02:49:46;;;;;;;10.90;9.90;;;;;;;21.83;67.95;96630.56;6268974;22;20023;-80
2023/09/11 02:52:17;;;;;;;10.88;9.75;;;;;;;21.80;67.87;96631.88;6269685;22;20050;-80
2023/09/11 02:54:48;;;;;;;17.75;10.55;;;;;;;21.78;67.90;96628.66;6269669;23;20050;-80
2023/09/11 02:57:18;;;;;;;11.18;10.05;;;;;;;21.76;68.41;96631.56;6269651;22;20028;-80
2023/09/11 02:59:46;;;;;;;11.90;9.70;;;;;;;21.76;68.06;96626.25;6269213;22;20072;-80
2023/09/11 03:02:14;;;;;;;12.15;9.45;;;;;;;21.75;68.36;96626.50;6269586;22;20043;-80
2023/09/11 03:04:42;;;;;;;10.95;9.77;;;;;;;21.79;68.38;96625.72;6269582;22;20020;-80
2023/09/11 03:07:14;;;;;;;11.32;10.00;;;;;;;21.81;68.06;96626.28;6269920;22;20020;-80
2023/09/11 03:09:42;;;;;;;13.77;9.77;;;;;;;21.84;67.81;96621.53;6269148;23;20023;-80
2023/09/11 03:12:11;;;;;;;13.15;9.38;;;;;;;21.89;67.50;96630.34;6269068;22;20020;-80
2023/09/11 03:14:40;;;;;;;10.20;8.35;;;;;;;21.93;67.35;96630.63;6269111;22;20044;-80
2023/09/11 03:17:10;;;;;;;9.57;8.65;;;;;;;21.95;67.00;96634.66;6268871;22;20020;-80
2023/09/11 03:19:39;;;;;;;10.82;8.50;;;;;;;21.92;66.81;96635.13;6269212;22;20038;-80
2023/09/11 03:22:11;;;;;;;13.48;10.38;;;;;;;21.89;67.45;96634.84;6269252;22;20031;-80
2023/09/11 03:24:41;;;;;;;10.75;9.70;;;;;;;21.87;67.13;96637.75;6268790;22;20016;-80
2023/09/11 03:27:09;;;;;;;11.98;10.82;;;;;;;21.84;67.69;96634.78;6269019;22;20016;-80
2023/09/11 03:29:38;;;;;;;10.18;9.18;;;;;;;21.81;67.75;96634.25;6268672;22;20073;-80
2023/09/11 03:32:08;;;;;;;13.48;10.02;;;;;;;21.82;67.46;96632.38;6269206;22;20020;-80
2023/09/11 03:34:36;;;;;;;11.82;10.10;;;;;;;21.81;67.30;96628.94;6269668;22;20047;-80
2023/09/11 03:37:04;;;;;;;11.48;9.93;;;;;;;21.79;67.38;96624.94;6269210;22;20043;-80
2023/09/11 03:39:32;;;;;;;12.43;9.85;;;;;;;21.76;67.76;96634.22;6268204;22;20046;-80
2023/09/11 03:42:00;;;;;;;12.05;10.52;;;;;;;21.67;67.79;96633.06;6269145;22;20024;-80
2023/09/11 03:44:29;;;;;;;12.50;10.25;;;;;;;21.60;67.89;96632.44;6269272;22;20008;-80
2023/09/11 03:46:57;;;;;;;12.13;10.80;;;;;;;21.55;68.28;96630.56;6269309;22;20349;-80
2023/09/11 03:49:27;;;;;;;11.80;10.60;;;;;;;21.49;68.20;96633.41;6269089;22;20008;-80
2023/09/11 03:51:55;;;;;;;14.32;10.63;;;;;;;21.40;68.19;96628.50;6268589;22;20053;-80
2023/09/11 03:54:23;;;;;;;11.27;10.18;;;;;;;21.32;68.87;96626.34;6267479;22;20118;-80
2023/09/11 03:56:51;;;;;;;11.98;10.48;;;;;;;21.28;68.83;96622.56;6268498;22;20024;-80
2023/09/11 03:59:19;;;;;;;12.40;10.18;;;;;;;21.25;69.13;96625.69;6268249;22;20016;-80
2023/09/11 04:01:48;;;;;;;10.48;9.40;;;;;;;21.24;69.09;96624.13;6269464;22;20031;-80
2023/09/11 04:04:16;;;;;;;12.70;10.73;;;;;;;21.24;68.73;96623.31;6268028;22;20080;-80
2023/09/11 04:06:46;;;;;;;12.23;11.07;;;;;;;21.22;69.32;96620.91;6268723;22;20035;-80
2023/09/11 04:09:14;;;;;;;13.52;11.35;;;;;;;21.19;69.14;96629.38;6268944;23;20024;-81
2023/09/11 04:11:43;;;;;;;11.50;10.35;;;;;;;21.12;69.27;96626.09;6268625;22;20004;-80
2023/09/11 04:14:11;;;;;;;11.98;10.75;;;;;;;21.05;69.57;96623.63;6268208;22;20027;-80
2023/09/11 04:16:39;;;;;;;12.35;10.00;;;;;;;21.03;69.85;96622.28;6268947;22;20479;-80
2023/09/11 04:19:08;;;;;;;13.45;10.95;;;;;;;20.96;70.13;96623.25;6267471;22;20026;-80
2023/09/11 04:21:36;;;;;;;13.77;12.02;;;;;;;20.94;69.85;96620.06;6269429;22;20072;-81
2023/09/11 04:24:12;;;;;;;14.85;12.23;;;;;;;20.90;70.37;96626.09;6269196;22;20080;-80
2023/09/11 04:26:41;;;;;;;12.55;11.30;;;;;;;20.87;70.33;96618.66;6268829;23;20016;-80
2023/09/11 04:29:11;;;;;;;14.65;12.18;;;;;;;20.83;70.43;96617.53;6269123;22;20019;-81
2023/09/11 04:31:39;;;;;;;13.73;11.75;;;;;;;20.77;70.41;96611.34;6268737;22;20047;-80
2023/09/11 04:34:08;;;;;;;14.38;11.00;;;;;;;20.73;70.69;96618.22;6267996;22;20054;-80
2023/09/11 04:36:37;;;;;;;15.07;12.10;;;;;;;20.71;70.62;96617.66;6268479;22;20024;-80
2023/09/11 04:39:07;;;;;;;13.98;12.20;;;;;;;20.68;70.87;96621.59;6269171;22;20011;-81
2023/09/11 04:41:35;;;;;;;14.52;11.52;;;;;;;20.63;70.94;96613.59;6268846;22;20020;-81
2023/09/11 04:44:04;;;;;;;17.48;11.93;;;;;;;20.59;70.92;96612.47;6268527;22;20020;-80
2023/09/11 04:46:32;;;;;;;14.73;12.50;;;;;;;20.54;71.03;96620.31;6267992;22;20483;-80
2023/09/11 04:49:00;;;;;;;14.57;12.65;;;;;;;20.50;71.13;96625.31;6268703;22;20016;-80
2023/09/11 04:51:29;;;;;;;14.80;13.20;;;;;;;20.47;71.00;96625.00;6267730;22;20055;-80
2023/09/11 04:53:57;;;;;;;18.65;13.20;;;;;;;20.43;71.55;96622.03;6267949;22;20023;-80
2023/09/11 04:56:26;;;;;;;14.13;12.57;;;;;;;20.44;71.82;96620.97;6268038;22;20076;-80
2023/09/11 04:58:54;;;;;;;15.80;13.80;;;;;;;20.47;71.75;96628.44;6269364;22;20035;-81
2023/09/11 05:01:22;;;;;;;15.82;12.93;;;;;;;20.51;71.51;96629.56;6268113;22;20020;-81
2023/09/11 05:03:51;;;;;;;17.50;13.07;;;;;;;20.56;71.53;96634.94;6268593;22;20026;-80
2023/09/11 05:06:19;;;;;;;17.88;13.30;;;;;;;20.62;70.82;96635.84;6268583;22;20054;-80
2023/09/11 05:08:49;;;;;;;14.40;12.90;;;;;;;20.58;70.86;96635.53;6267822;22;20039;-81
2023/09/11 05:11:39;;;;;;;16.48;14.02;;;;;;;20.54;70.66;96636.22;6267148;23;20027;-81
2023/09/11 05:14:07;;;;;;;16.67;13.70;;;;;;;20.48;70.51;96638.00;6267628;22;20035;-80
2023/09/11 05:16:35;;;;;;;20.20;15.07;;;;;;;20.44;70.68;96641.38;6268110;22;20024;-80
2023/09/11 05:19:03;;;;;;;15.30;13.70;;;;;;;20.37;70.66;96638.91;6272357;22;20008;-80
2023/09/11 05:21:32;;;;;;;16.50;14.77;;;;;;;20.32;71.32;96636.19;6273283;22;20008;-80
2023/09/11 05:24:00;;;;;;;18.17;14.65;;;;;;;20.28;71.33;96648.31;6272862;22;20012;-80
2023/09/11 05:26:29;;;;;;;18.35;14.07;;;;;;;20.22;71.45;96643.97;6270139;22;20027;-80
2023/09/11 05:28:58;;;;;;;15.85;13.20;;;;;;;20.18;71.94;96641.00;6267951;22;20016;-80
2023/09/11 05:31:27;;;;;;;18.67;13.38;;;;;;;20.14;72.27;96645.19;6269945;22;20012;-80
2023/09/11 05:33:56;;;;;;;14.75;12.55;;;;;;;20.11;72.41;96638.50;6270055;22;20024;-80
2023/09/11 05:36:24;;;;;;;15.48;12.20;;;;;;;20.09;72.39;96637.16;6270018;22;20035;-80
2023/09/11 05:38:57;;;;;;;15.90;12.15;;;;;;;20.08;72.60;96644.31;6270010;22;20076;-81
2023/09/11 05:41:26;;;;;;;14.73;11.73;;;;;;;20.08;72.72;96640.84;6270613;23;20039;-80
2023/09/11 05:43:55;;;;;;;13.93;12.07;;;;;;;20.08;72.98;96644.31;6269372;22;20071;-80
2023/09/11 05:46:25;;;;;;;16.33;12.15;;;;;;;20.10;73.22;96652.81;6269766;22;20020;-80
2023/09/11 05:48:54;;;;;;;15.70;12.40;;;;;;;20.13;73.18;96657.59;6270160;23;20020;-80
2023/09/11 05:51:23;;;;;;;14.40;12.05;;;;;;;20.16;72.94;96646.56;6269951;22;20024;-80
2023/09/11 05:53:51;;;;;;;13.63;12.00;;;;;;;20.21;72.91;96647.69;6269807;22;20024;-80
2023/09/11 05:56:20;;;;;;;15.23;11.77;;;;;;;20.26;72.80;96653.03;6270150;22;20434;-80
2023/09/11 05:58:52;;;;;;;15.75;12.35;;;;;;;20.29;72.99;96649.91;6269169;22;20016;-80
2023/09/11 06:01:26;;;;;;;12.90;11.70;;;;;;;20.34;72.66;96658.72;6269712;22;20046;-80
2023/09/11 06:03:58;;;;;;;14.98;13.48;;;;;;;20.38;72.12;96667.00;6269222;22;20020;-80
2023/09/11 06:06:27;;;;;;;15.27;13.43;;;;;;;20.42;71.89;96654.84;6269955;23;20020;-81
2023/09/11 06:08:57;;;;;;;14.68;13.13;;;;;;;20.44;72.06;96663.38;6269638;22;20028;-80
2023/09/11 06:11:26;;;;;;;13.52;12.23;;;;;;;20.46;71.81;96660.47;6269998;23;20020;-80
2023/09/11 06:13:56;;;;;;;19.05;13.43;;;;;;;20.44;71.73;96660.72;6269451;22;20030;-80
2023/09/11 06:16:27;;;;;;;15.40;13.10;;;;;;;20.45;71.84;96661.53;6268898;23;20065;-80
2023/09/11 06:19:02;;;;;;;15.00;13.40;;;;;;;20.46;71.98;96666.56;6269242;22;20000;-80
2023/09/11 06:21:35;;;;;;;15.02;13.57;;;;;;;20.48;71.93;96661.84;6269349;23;20031;-80
2023/09/11 06:24:07;;;;;;;16.50;13.45;;;;;;;20.52;71.97;96664.81;6268526;22;20026;-80
2023/09/11 06:26:36;;;;;;;15.63;12.93;;;;;;;20.55;71.97;96659.00;6269852;23;20031;-81
2023/09/11 06:29:06;;;;;;;18.65;13.30;;;;;;;20.60;71.67;96660.97;6270096;22;20027;-80
2023/09/11 06:31:35;;;;;;;19.23;13.73;;;;;;;20.65;71.92;96664.50;6269585;22;20214;-80
2023/09/11 06:34:05;;;;;;;19.45;14.45;;;;;;;20.72;71.51;96659.81;6269492;22;20046;-80
2023/09/11 06:36:36;;;;;;;17.17;13.00;;;;;;;20.81;71.29;96665.50;6268990;23;20458;-80
2023/09/11 06:39:05;;;;;;;20.45;14.13;;;;;;;20.91;71.11;96655.03;6269161;22;20465;-80
2023/09/11 06:41:34;;;;;;;19.23;14.25;;;;;;;21.03;71.24;96660.19;6268383;22;20024;-80
2023/09/11 06:44:10;;;;;;;26.92;16.10;;;;;;;21.17;70.50;96664.09;6268442;22;20016;-80
2023/09/11 06:46:40;;;;;;;19.90;14.93;;;;;;;21.30;70.35;96660.28;6269829;23;20020;-80
2023/09/11 06:49:12;;;;;;;20.55;14.50;;;;;;;21.47;70.06;96664.69;6269150;22;20064;-80
2023/09/11 06:51:41;;;;;;;16.00;12.95;;;;;;;21.64;69.58;96656.66;6269790;23;20050;-80
2023/09/11 06:54:14;;;;;;;14.20;12.52;;;;;;;21.79;69.07;96662.91;6268362;22;20074;-80
2023/09/11 06:56:49;;;;;;;16.98;13.38;;;;;;;21.96;68.48;96668.09;6269060;23;20016;-80
2023/09/11 06:59:18;;;;;;;15.98;12.07;;;;;;;22.12;68.24;96666.38;6269025;23;20027;-80
2023/09/11 07:01:48;;;;;;;13.65;11.05;;;;;;;22.28;67.93;96662.03;6269308;22;20074;-80
2023/09/11 07:04:26;;;;;;;15.63;11.75;;;;;;;22.45;67.61;96664.50;6267655;22;20027;-80
2023/09/11 07:06:58;;;;;;;15.70;11.75;;;;;;;22.62;67.28;96667.81;6270469;23;20077;-80
2023/09/11 07:09:27;;;;;;;;;;;;;;;22.79;66.98;96669.50;6270388;23;20074;-80
2023/09/11 07:11:56;;;;;;;12.30;10.10;;;;;;;22.94;66.28;96661.59;6269015;22;19922;-80
2023/09/11 07:14:26;;;;;;;11.80;10.60;;;;;;;23.12;65.69;96667.56;6269078;22;20031;-80
2023/09/11 07:17:00;;;;;;;11.10;9.98;;;;;;;23.30;65.49;96667.09;6268159;23;20047;-81
2023/09/11 07:19:30;;;;;;;10.85;9.57;;;;;;;23.48;65.06;96670.31;6268866;23;20024;-81
2023/09/11 07:21:59;;;;;;;11.27;9.52;;;;;;;23.64;64.24;96669.31;6268253;22;20027;-80
2023/09/11 07:24:27;;;;;;;14.13;9.50;;;;;;;23.83;64.00;96662.44;6267628;22;20055;-80
2023/09/11 07:26:56;;;;;;;10.82;9.73;;;;;;;24.03;63.69;96661.66;6268278;22;20075;-80
2023/09/11 07:29:26;;;;;;;10.77;8.68;;;;;;;24.23;62.88;96662.72;6268285;22;20035;-80
2023/09/11 07:31:55;;;;;;;11.38;9.95;;;;;;;24.41;62.08;96661.38;6268155;23;20050;-80
2023/09/11 07:34:26;;;;;;;11.30;9.15;;;;;;;24.56;61.79;96658.69;6268447;22;20027;-80
2023/09/11 07:36:57;;;;;;;12.25;8.95;;;;;;;24.74;61.18;96659.19;6267706;22;20020;-80
2023/09/11 07:39:25;;;;;;;11.48;8.75;;;;;;;24.92;61.10;96658.59;6267762;23;20024;-80
2023/09/11 07:41:54;;;;;;;11.88;9.48;;;;;;;25.11;60.36;96658.00;6267088;22;20020;-80
2023/09/11 07:44:25;;;;;;;10.00;8.35;;;;;;;25.29;59.91;96663.53;6267639;22;20070;-80
2023/09/11 07:46:53;;;;;;;11.52;9.35;;;;;;;25.51;59.20;96661.56;6266351;22;20016;-80
2023/09/11 07:49:23;;;;;;;9.40;8.30;;;;;;;25.73;58.54;96664.63;6266658;22;20016;-80
2023/09/11 07:51:58;;;;;;;10.00;9.00;;;;;;;25.97;57.84;96658.63;6266650;23;20507;-80
2023/09/11 07:54:30;;;;;;;10.88;8.93;;;;;;;26.21;56.36;96662.16;6266072;22;20050;-80
2023/09/11 07:57:01;;;;;;;8.80;7.90;;;;;;;26.43;55.42;96658.22;6266002;23;20020;-80
2023/09/11 07:59:30;;;;;;;10.48;9.25;;;;;;;26.67;54.59;96656.41;6266337;22;20095;-80
2023/09/11 08:02:04;;;;;;;9.60;8.63;;;;;;;26.91;53.78;96658.28;6265162;22;20020;-80
2023/09/11 08:04:35;;;;;;;10.60;8.98;;;;;;;27.16;53.34;96664.41;6266717;22;20020;-80
2023/09/11 08:07:06;;;;;;;9.80;8.68;;;;;;;27.38;52.73;96659.34;6267805;22;20016;-80
2023/09/11 08:09:38;;;;;;;10.00;8.50;;;;;;;27.59;51.70;96661.75;6265088;23;20035;-80
2023/09/11 08:12:09;;;;;;;;;;;;;;;27.79;52.31;96658.78;6265484;23;20020;-81
2023/09/11 08:14:44;;;;;;;9.73;8.77;;;;;;;28.04;51.62;96670.22;6264486;22;19915;-81
2023/09/11 08:17:16;;;;;;;10.35;9.20;;;;;;;28.31;50.38;96664.94;6264285;23;20450;-80
2023/09/11 08:19:47;;;;;;;9.57;8.68;;;;;;;28.59;49.92;96661.53;6264186;22;20353;-80
2023/09/11 08:22:23;;;;;;;13.85;8.43;;;;;;;28.89;48.82;96655.59;6262458;23;20020;-81
2023/09/11 08:24:52;;;;;;;12.23;8.63;;;;;;;29.16;48.22;96657.50;6274341;22;20015;-80
2023/09/11 08:27:20;;;;;;;10.98;8.70;;;;;;;29.51;47.69;96660.53;6276899;22;20069;-81
2023/09/11 08:29:49;;;;;;;10.23;8.75;;;;;;;30.11;45.98;96658.63;6276070;22;20031;-81
2023/09/11 08:32:16;;;;;;;12.07;8.57;;;;;;;31.10;43.97;96655.84;6277009;22;20334;-80
2023/09/11 08:34:44;;;;;;;9.45;7.85;;;;;;;32.24;42.14;96665.59;6276291;22;20461;-81
2023/09/11 08:37:12;;;;;;;9.82;7.43;;;;;;;33.05;39.90;96661.22;6279026;22;20045;-80
2023/09/11 08:39:41;;;;;;;7.93;7.13;;;;;;;33.77;38.43;96662.06;6280168;22;20023;-80
2023/09/11 08:42:09;;;;;;;8.73;7.72;;;;;;;34.59;36.27;96664.16;6279582;22;20023;-80
2023/09/11 08:44:38;;;;;;;8.13;7.32;;;;;;;35.39;35.29;96656.63;6278927;22;20019;-80
2023/09/11 08:47:07;;;;;;;8.25;7.03;;;;;;;36.14;34.07;96660.75;6279749;22;20046;-81
2023/09/11 08:49:40;;;;;;;8.73;7.15;;;;;;;36.81;32.82;96661.72;6279097;22;20028;-80
2023/09/11 08:52:12;;;;;;;10.75;7.13;;;;;;;37.38;31.17;96664.97;6278576;22;20050;-80
2023/09/11 08:54:42;;;;;;;7.78;6.97;;;;;;;37.70;30.32;96662.97;6278178;22;20421;-81
2023/09/11 08:57:12;;;;;;;7.90;7.10;;;;;;;38.18;30.48;96654.59;6278812;22;20019;-80
2023/09/11 08:59:43;;;;;;;8.27;7.43;;;;;;;38.72;29.68;96656.31;6278440;22;20401;-81
2023/09/11 09:02:12;;;;;;;6.47;5.88;;;;;;;39.17;28.82;96667.56;6278548;22;20027;-80
2023/09/11 09:04:41;;;;;;;7.15;6.45;;;;;;;39.67;28.45;96660.09;6278479;22;20024;-81
2023/09/11 09:07:10;;;;;;;7.13;6.15;;;;;;;40.08;27.40;96649.28;6278426;22;20020;-79
2023/09/11 09:09:41;;;;;;;7.90;6.53;;;;;;;40.38;27.15;96653.91;6277192;22;20062;-79
2023/09/11 09:12:09;;;;;;;7.72;5.75;;;;;;;40.65;26.16;96656.47;6277688;22;20019;-82
2023/09/11 09:14:38;;;;;;;5.43;4.93;;;;;;;40.71;25.42;96660.47;6279874;22;20085;-81
2023/09/11 09:17:07;;;;;;;8.63;5.10;;;;;;;40.53;25.25;96650.13;6279739;22;20023;-82
2023/09/11 09:19:34;;;;;;;5.40;4.80;;;;;;;40.17;24.92;96647.03;6278140;22;20024;-79
2023/09/11 09:22:09;;;;;;;6.07;4.88;;;;;;;39.62;25.65;96648.72;6276762;22;20051;-79
2023/09/11 09:24:46;;;;;;;5.65;5.15;;;;;;;39.00;26.83;96649.00;6276877;22;20027;-81
2023/09/11 09:27:15;;;;;;;6.13;4.53;;;;;;;38.31;27.82;96636.13;6278197;22;20016;-82
2023/09/11 09:29:43;;;;;;;5.88;4.30;;;;;;;37.77;28.37;96635.13;6279293;22;20023;-82
2023/09/11 09:32:11;;;;;;;6.32;4.97;;;;;;;37.29;28.97;96631.75;6279154;22;20379;-82
2023/09/11 09:34:43;;;;;;;5.20;4.65;;;;;;;37.00;28.29;96625.66;6278160;22;20473;-81
2023/09/11 09:37:16;;;;;;;6.43;4.70;;;;;;;36.80;29.65;96632.97;6279288;22;20019;-81
2023/09/11 09:39:44;;;;;;;4.88;4.47;;;;;;;36.68;29.43;96624.91;6278536;22;20615;-81
2023/09/11 09:42:12;;;;;;;5.15;4.68;;;;;;;36.76;29.49;96626.66;6278471;22;20077;-81
2023/09/11 09:44:48;;;;;;;6.95;4.57;;;;;;;37.24;27.63;96629.28;6277957;22;20103;-81
2023/09/11 09:47:19;;;;;;;5.97;5.07;;;;;;;37.80;28.16;96628.16;6277764;22;20484;-81
2023/09/11 09:49:48;;;;;;;5.75;4.65;;;;;;;38.44;26.75;96625.84;6277736;22;20031;-81
2023/09/11 09:52:18;;;;;;;7.30;4.50;;;;;;;39.02;25.46;96635.78;6278159;22;20066;-81
2023/09/11 09:54:49;;;;;;;4.78;4.30;;;;;;;39.50;23.92;96625.94;6293351;22;20107;-81
2023/09/11 09:57:18;;;;;;;7.65;4.65;;;;;;;40.01;23.87;96624.59;6294430;22;20047;-82
2023/09/11 09:59:51;;;;;;;9.90;4.78;;;;;;;40.67;23.32;96624.06;6281663;22;20054;-82
2023/09/11 10:02:25;;;;;;;8.68;4.05;;;;;;;41.35;22.55;96627.28;6283493;22;20050;-81
2023/09/11 10:04:53;;;;;;;7.25;4.95;;;;;;;41.88;22.19;96615.81;6289312;22;20040;-82
2023/09/11 10:07:37;;;;;;;4.82;4.30;;;;;;;42.28;21.82;96610.44;6286421;22;20016;-81
2023/09/11 10:10:20;;;;;;;5.38;4.57;;;;;;;42.67;21.67;96605.00;6281600;22;20027;-82
2023/09/11 10:12:52;;;;;;;5.47;3.97;;;;;;;42.93;20.70;96605.78;6281608;22;20024;-81
2023/09/11 10:15:22;;;;;;;8.00;4.95;;;;;;;43.05;20.55;96601.81;6281054;22;20024;-81
2023/09/11 10:17:54;;;;;;;4.93;4.30;;;;;;;43.07;20.14;96604.97;6280134;22;20395;-82
2023/09/11 10:20:22;;;;;;;5.90;4.50;;;;;;;42.80;20.44;96597.91;6280474;22;20026;-82
2023/09/11 10:22:53;;;;;;;5.13;4.22;;;;;;;42.63;21.07;96589.72;6279884;22;20024;-82
2023/09/11 10:25:22;;;;;;;5.15;3.95;;;;;;;42.74;20.78;96588.53;6280889;22;20020;-81
2023/09/11 10:27:53;;;;;;;7.35;4.30;;;;;;;42.94;20.65;96585.38;6279182;22;20532;-81
2023/09/11 10:30:26;;;;;;;5.88;4.32;;;;;;;43.02;20.29;96588.91;6280402;22;20071;-81
2023/09/11 10:33:00;;;;;;;6.40;4.88;;;;;;;43.03;20.45;96596.72;6279856;22;20027;-81
2023/09/11 10:35:30;;;;;;;5.70;4.25;;;;;;;42.91;20.95;96583.44;6280278;22;20023;-82
2023/09/11 10:37:59;;;;;;;6.00;3.97;;;;;;;42.38;21.36;96588.53;6279943;22;20420;-81
2023/09/11 10:40:29;;;;;;;6.40;4.90;;;;;;;41.75;21.29;96581.75;6279892;22;20353;-82
2023/09/11 10:42:57;;;;;;;7.07;3.92;;;;;;;41.25;22.46;96574.09;6279121;22;20495;-82
2023/09/11 10:45:30;;;;;;;5.43;3.60;;;;;;;40.72;23.02;96574.53;6279320;22;20024;-81
2023/09/11 10:47:57;;;;;;;6.18;3.95;;;;;;;40.34;23.16;96568.34;6279385;22;20019;-82
2023/09/11 10:50:30;;;;;;;6.25;4.18;;;;;;;40.00;23.14;96568.44;6279384;22;20028;-82
2023/09/11 10:52:58;;;;;;;7.88;3.75;;;;;;;39.60;23.83;96561.75;6282625;22;20043;-82
2023/09/11 10:55:26;;;;;;;5.80;4.07;;;;;;;39.38;24.35;96562.59;6281813;22;20408;-82
2023/09/11 10:57:57;;;;;;;4.57;3.80;;;;;;;39.23;23.79;96559.72;6281215;22;20016;-82
2023/09/11 11:00:26;;;;;;;7.47;4.03;;;;;;;38.99;23.58;96565.59;6280614;22;20019;-81
2023/09/11 11:02:56;;;;;;;7.88;3.90;;;;;;;38.65;24.10;96565.47;6280098;22;20020;-82
2023/09/11 11:05:24;;;;;;;5.13;3.78;;;;;;;38.36;23.79;96559.56;6280282;22;20361;-82
2023/09/11 11:07:52;;;;;;;5.45;3.50;;;;;;;38.03;24.50;96550.06;6279516;22;20066;-81
2023/09/11 11:10:20;;;;;;;5.97;3.70;;;;;;;37.84;25.39;96561.75;6279458;22;20519;-82
2023/09/11 11:12:48;;;;;;;6.22;3.47;;;;;;;37.79;25.79;96553.09;6279750;22;20046;-82
2023/09/11 11:15:20;;;;;;;7.15;4.03;;;;;;;37.63;25.10;96553.97;6279367;22;20028;-81
2023/09/11 11:18:05;;;;;;;4.47;3.50;;;;;;;37.44;26.13;96557.47;6279645;22;20026;-81
2023/09/11 11:20:34;;;;;;;7.13;4.22;;;;;;;37.32;26.18;96550.22;6278978;22;20218;-81
2023/09/11 11:23:09;;;;;;;6.03;4.00;;;;;;;37.23;26.40;96557.03;6278024;22;20028;-81
2023/09/11 11:25:37;;;;;;;7.00;3.90;;;;;;;37.08;25.54;96551.25;6279532;22;20028;-81
2023/09/11 11:28:15;;;;;;;8.80;3.90;;;;;;;36.98;26.41;96551.03;6279906;22;20020;-82
2023/09/11 11:30:45;;;;;;;8.10;3.80;;;;;;;36.93;25.93;96549.34;6278872;22;20028;-81
2023/09/11 11:33:16;;;;;;;7.47;3.80;;;;;;;36.86;25.90;96549.19;6278483;22;20085;-81
2023/09/11 11:35:45;;;;;;;9.38;4.10;;;;;;;36.80;26.13;96540.56;6278650;22;20026;-82
2023/09/11 11:38:16;;;;;;;5.35;3.47;;;;;;;36.77;25.93;96538.53;6278514;22;20016;-81
2023/09/11 11:40:45;;;;;;;7.45;3.85;;;;;;;36.58;26.55;96533.78;6278409;22;20020;-82